createdAt,value
2023-04-16T00:03:00.998Z,23.98
2023-04-16T00:08:29.060Z,23.35
2023-04-16T00:13:56.060Z,22.75
2023-04-16T00:19:23.014Z,23.45
2023-04-16T00:24:51.372Z,24.80
2023-04-16T00:30:19.386Z,26.63
2023-04-16T00:35:51.469Z,30.70
2023-04-16T00:41:19.167Z,31.42
2023-04-16T00:46:47.883Z,31.15
2023-04-16T00:52:15.721Z,33.10
2023-04-16T00:57:42.931Z,31.55
2023-04-16T01:08:39.183Z,31.73
2023-04-16T01:14:06.514Z,31.25
2023-04-16T01:19:36.539Z,29.67
2023-04-16T01:25:04.774Z,29.20
2023-04-16T01:30:32.307Z,30.73
2023-04-16T01:36:14.190Z,28.48
2023-04-16T01:41:41.940Z,29.08
2023-04-16T01:47:09.217Z,28.80
2023-04-16T01:52:37.845Z,29.67
2023-04-16T01:58:04.976Z,30.83
2023-04-16T02:03:36.065Z,30.90
2023-04-16T02:09:04.562Z,32.13
2023-04-16T02:14:32.874Z,32.10
2023-04-16T02:20:00.449Z,30.55
2023-04-16T02:25:28.277Z,32.83
2023-04-16T02:30:57.584Z,33.05
2023-04-16T02:36:27.690Z,31.98
2023-04-16T02:41:56.520Z,32.15
2023-04-16T02:47:23.400Z,34.40
2023-04-16T02:52:51.801Z,33.35
2023-04-16T02:58:21.286Z,36.38
2023-04-16T03:03:48.291Z,37.80
2023-04-16T03:09:15.383Z,42.28
2023-04-16T03:14:42.591Z,50.65
2023-04-16T03:20:10.498Z,51.75
2023-04-16T03:25:37.472Z,43.05
2023-04-16T03:31:04.565Z,40.85
2023-04-16T03:36:32.830Z,37.63
2023-04-16T03:42:00.248Z,37.30
2023-04-16T03:47:28.945Z,34.78
2023-04-16T03:53:00.211Z,36.83
2023-04-16T03:58:27.295Z,34.13
2023-04-16T04:03:56.695Z,34.70
2023-04-16T04:09:24.445Z,34.42
2023-04-16T04:14:53.515Z,34.50
2023-04-16T04:20:21.684Z,30.92
2023-04-16T04:25:49.095Z,31.85
2023-04-16T04:31:16.793Z,30.85
2023-04-16T04:36:44.873Z,34.55
2023-04-16T04:42:13.391Z,32.08
2023-04-16T04:47:41.511Z,35.05
2023-04-16T04:53:11.783Z,33.38
2023-04-16T04:58:38.900Z,31.48
2023-04-16T05:04:06.912Z,31.13
2023-04-16T05:09:34.854Z,31.92
2023-04-16T05:15:02.766Z,30.73
2023-04-16T05:20:30.714Z,31.15
2023-04-16T05:25:57.504Z,28.90
2023-04-16T05:31:24.825Z,30.60
2023-04-16T05:36:51.858Z,31.90
2023-04-16T05:42:18.926Z,29.92
2023-04-16T05:47:46.196Z,28.90
2023-04-16T05:53:14.479Z,27.15
2023-04-16T05:58:42.051Z,26.40
2023-04-16T06:04:10.083Z,24.20
2023-04-16T06:09:38.283Z,21.83
2023-04-16T06:15:06.662Z,22.23
2023-04-16T06:20:33.955Z,22.73
2023-04-16T06:26:02.551Z,22.77
2023-04-16T06:31:31.188Z,23.77
2023-04-16T06:36:58.831Z,23.73
2023-04-16T06:42:26.273Z,23.83
2023-04-16T06:47:54.241Z,23.65
2023-04-16T06:53:24.600Z,25.52
2023-04-16T06:58:53.281Z,25.88
2023-04-16T07:04:21.436Z,23.50
2023-04-16T07:09:49.023Z,24.75
2023-04-16T07:15:16.578Z,25.45
2023-04-16T07:20:44.133Z,21.75
2023-04-16T07:26:12.186Z,21.73
2023-04-16T07:31:39.235Z,21.77
2023-04-16T07:37:06.123Z,20.90
2023-04-16T07:42:33.142Z,20.23
2023-04-16T07:48:00.245Z,20.85
2023-04-16T07:53:27.251Z,19.60
2023-04-16T07:58:54.323Z,19.73
2023-04-16T08:04:25.690Z,19.63
2023-04-16T08:09:54.204Z,19.52
2023-04-16T08:15:21.451Z,18.20
2023-04-16T08:20:49.422Z,19.05
2023-04-16T08:26:18.044Z,18.40
2023-04-16T08:31:46.040Z,19.13
2023-04-16T08:37:13.603Z,18.92
2023-04-16T08:42:48.959Z,15.63
2023-04-16T08:48:16.767Z,15.85
2023-04-16T08:53:52.433Z,16.00
2023-04-16T08:59:19.686Z,14.18
2023-04-16T09:04:50.289Z,10.20
2023-04-16T09:10:18.025Z,10.43
2023-04-16T09:15:45.760Z,7.35
2023-04-16T09:21:13.946Z,8.00
2023-04-16T09:26:43.825Z,7.68
2023-04-16T09:32:12.221Z,6.65
2023-04-16T09:37:39.134Z,6.22
2023-04-16T09:43:17.185Z,5.65
2023-04-16T09:48:46.264Z,6.00
2023-04-16T09:54:13.895Z,5.85
2023-04-16T09:59:41.626Z,5.45
2023-04-16T10:05:09.046Z,6.38
2023-04-16T10:10:36.709Z,5.78
2023-04-16T10:16:03.880Z,6.03
2023-04-16T10:21:34.485Z,6.00
2023-04-16T10:27:01.920Z,5.10
2023-04-16T10:32:31.645Z,4.30
2023-04-16T10:38:14.904Z,5.63
2023-04-16T10:43:47.094Z,7.28
2023-04-16T10:54:50.821Z,6.72
2023-04-16T11:00:24.189Z,5.55
2023-04-16T11:05:52.592Z,5.63
2023-04-16T11:11:21.051Z,3.42
2023-04-16T11:16:49.140Z,3.42
2023-04-16T11:22:18.154Z,2.70
2023-04-16T11:27:46.130Z,2.60
2023-04-16T11:33:13.950Z,2.80
2023-04-16T11:38:43.152Z,3.38
2023-04-16T11:44:18.697Z,2.10
2023-04-16T11:49:45.838Z,1.42
2023-04-16T11:55:13.067Z,2.08
2023-04-16T12:00:41.846Z,2.20
2023-04-16T12:06:10.082Z,1.30
2023-04-16T12:11:39.950Z,1.75
2023-04-16T12:17:20.982Z,2.20
2023-04-16T12:22:53.018Z,2.75
2023-04-16T12:28:31.457Z,2.78
2023-04-16T12:34:04.412Z,2.47
2023-04-16T12:39:32.143Z,2.47
2023-04-16T12:44:58.774Z,2.47
2023-04-16T12:50:26.449Z,3.25
2023-04-16T12:55:54.284Z,3.65
2023-04-16T13:01:22.328Z,3.88
2023-04-16T13:06:50.483Z,3.70
2023-04-16T13:12:18.524Z,3.45
2023-04-16T13:17:46.778Z,3.85
2023-04-16T13:23:14.254Z,3.63
2023-04-16T13:28:42.194Z,4.03
2023-04-16T13:34:09.571Z,4.30
2023-04-16T13:39:37.265Z,4.22
2023-04-16T13:45:04.830Z,3.80
2023-04-16T13:50:32.349Z,4.80
2023-04-16T13:56:00.693Z,4.05
2023-04-16T14:01:28.926Z,3.80
2023-04-16T14:06:56.584Z,4.10
2023-04-16T14:12:24.363Z,4.45
2023-04-16T14:17:51.560Z,4.07
2023-04-16T14:23:19.524Z,4.20
2023-04-16T14:28:48.004Z,4.53
2023-04-16T14:34:15.761Z,4.90
2023-04-16T14:39:43.418Z,4.07
2023-04-16T14:45:10.555Z,4.03
2023-04-16T14:50:39.353Z,4.00
2023-04-16T14:56:06.693Z,4.32
2023-04-16T15:01:36.280Z,4.57
2023-04-16T15:07:03.335Z,4.03
2023-04-16T15:12:31.452Z,4.20
2023-04-16T15:17:58.927Z,4.30
2023-04-16T15:23:28.935Z,4.00
2023-04-16T15:28:56.753Z,3.67
2023-04-16T15:34:24.521Z,4.53
2023-04-16T15:39:53.167Z,4.15
2023-04-16T15:45:21.414Z,4.10
2023-04-16T15:50:49.126Z,4.07
2023-04-16T15:56:17.326Z,4.00
2023-04-16T16:01:44.604Z,3.55
2023-04-16T16:07:12.579Z,3.80
2023-04-16T16:12:41.602Z,4.13
2023-04-16T16:18:09.357Z,3.42
2023-04-16T16:23:36.457Z,3.55
2023-04-16T16:29:04.789Z,4.07
2023-04-16T16:34:31.597Z,3.97
2023-04-16T16:39:58.519Z,4.20
2023-04-16T16:45:29.111Z,5.00
2023-04-16T16:50:56.581Z,5.57
2023-04-16T16:56:23.851Z,6.38
2023-04-16T17:01:51.983Z,5.50
2023-04-16T17:07:19.681Z,5.45
2023-04-16T17:12:50.794Z,6.57
2023-04-16T17:18:18.367Z,4.43
2023-04-16T17:23:46.121Z,4.68
2023-04-16T17:29:14.081Z,5.00
2023-04-16T17:34:41.940Z,5.32
2023-04-16T17:40:10.233Z,4.88
2023-04-16T17:45:38.939Z,4.57
2023-04-16T17:51:14.750Z,4.38
2023-04-16T17:56:41.612Z,3.97
2023-04-16T18:02:08.999Z,4.63
2023-04-16T18:07:37.829Z,4.50
2023-04-16T18:13:05.318Z,7.40
2023-04-16T18:18:32.683Z,7.60
2023-04-16T18:24:01.190Z,6.38
2023-04-16T18:29:29.551Z,7.85
2023-04-16T18:34:57.189Z,7.47
2023-04-16T18:40:25.094Z,8.07
2023-04-16T18:45:52.460Z,7.75
2023-04-16T18:51:19.970Z,9.50
2023-04-16T18:56:47.472Z,9.90
2023-04-16T19:02:17.240Z,9.57
2023-04-16T19:07:45.182Z,10.30
2023-04-16T19:13:12.348Z,11.10
2023-04-16T19:18:40.146Z,11.95
2023-04-16T19:24:07.625Z,9.73
2023-04-16T19:29:35.867Z,10.45
2023-04-16T19:35:04.761Z,10.95
2023-04-16T19:40:32.000Z,12.13
2023-04-16T19:45:59.297Z,10.88
2023-04-16T19:51:31.857Z,12.95
2023-04-16T19:57:02.334Z,14.32
2023-04-16T20:02:30.147Z,16.27
2023-04-16T20:07:57.692Z,16.63
2023-04-16T20:13:25.344Z,16.23
2023-04-16T20:18:54.572Z,16.58
2023-04-16T20:24:24.395Z,16.00
2023-04-16T20:29:52.076Z,16.02
2023-04-16T20:35:19.291Z,16.45
2023-04-16T20:40:47.342Z,15.05
2023-04-16T20:46:14.595Z,15.45
2023-04-16T20:51:42.686Z,17.25
2023-04-16T20:57:10.511Z,16.70
2023-04-16T21:02:37.525Z,14.45
2023-04-16T21:08:06.019Z,15.45
2023-04-16T21:13:33.511Z,14.88
2023-04-16T21:19:00.536Z,15.00
2023-04-16T21:24:27.213Z,15.10
2023-04-16T21:29:54.311Z,14.88
2023-04-16T21:35:21.659Z,15.20
2023-04-16T21:40:54.038Z,15.65
2023-04-16T21:46:21.642Z,14.40
2023-04-16T21:51:50.662Z,15.07
2023-04-16T21:57:18.619Z,15.98
2023-04-16T22:02:47.021Z,14.18
2023-04-16T22:08:24.225Z,13.68
2023-04-16T22:13:52.418Z,14.90
2023-04-16T22:19:20.100Z,14.63
2023-04-16T22:24:47.610Z,15.07
2023-04-16T22:30:14.825Z,15.40
2023-04-16T22:35:42.305Z,16.20
2023-04-16T22:41:09.631Z,17.27
2023-04-16T22:46:36.723Z,18.23
2023-04-16T22:52:03.304Z,18.48
2023-04-16T22:57:31.287Z,19.30
2023-04-16T23:03:01.654Z,22.58
2023-04-16T23:08:28.729Z,21.48
2023-04-16T23:13:55.997Z,23.25
2023-04-16T23:19:23.531Z,25.13
2023-04-16T23:24:50.775Z,24.38
2023-04-16T23:30:18.246Z,23.75
2023-04-16T23:35:47.606Z,23.27
2023-04-16T23:41:14.810Z,24.85
2023-04-16T23:46:41.982Z,25.30
2023-04-16T23:52:09.866Z,24.88
2023-04-16T23:57:36.971Z,26.52
